sensor_id;sensor_type;location;lat;lon;timestamp;P1;durP1;ratioP1;P2;durP2;ratioP2
77953;SDS011;67151;52.544;6.034;2023-03-01T00:00:05;4;;;2.3;;
77953;SDS011;67151;52.544;6.034;2023-03-01T00:54:35;3.6;;;2;;
77953;SDS011;67151;52.544;6.034;2023-03-01T00:54:51;3;;;2.2;;
77953;SDS011;67151;52.544;6.034;2023-03-01T00:55:05;2.7;;;2;;
77953;SDS011;67151;52.544;6.034;2023-03-01T00:55:20;3.1;;;2;;
77953;SDS011;67151;52.544;6.034;2023-03-01T00:55:35;3.9;;;2;;
77953;SDS011;67151;52.544;6.034;2023-03-01T00:55:50;4;;;2;;
77953;SDS011;67151;52.544;6.034;2023-03-01T00:56:06;3.7;;;2;;
77953;SDS011;67151;52.544;6.034;2023-03-01T00:56:20;3.6;;;2.1;;
77953;SDS011;67151;52.544;6.034;2023-03-01T00:56:35;3.3;;;2.1;;
77953;SDS011;67151;52.544;6.034;2023-03-01T00:56:50;3.3;;;2;;
77953;SDS011;67151;52.544;6.034;2023-03-01T00:57:05;3.6;;;2.1;;
77953;SDS011;67151;52.544;6.034;2023-03-01T00:57:20;3.8;;;2.2;;
77953;SDS011;67151;52.544;6.034;2023-03-01T00:57:35;3.9;;;2.1;;
77953;SDS011;67151;52.544;6.034;2023-03-01T00:57:50;3.9;;;2.1;;
77953;SDS011;67151;52.544;6.034;2023-03-01T00:58:05;3.6;;;2.2;;
77953;SDS011;67151;52.544;6.034;2023-03-01T00:58:20;3.3;;;2;;
77953;SDS011;67151;52.544;6.034;2023-03-01T00:58:35;3.4;;;1.9;;
77953;SDS011;67151;52.544;6.034;2023-03-01T00:58:50;4;;;2;;
77953;SDS011;67151;52.544;6.034;2023-03-01T00:59:05;4;;;2;;
77953;SDS011;67151;52.544;6.034;2023-03-01T00:59:20;3.9;;;2.2;;
77953;SDS011;67151;52.544;6.034;2023-03-01T00:59:35;3.8;;;2;;
77953;SDS011;67151;52.544;6.034;2023-03-01T00:59:50;4.1;;;2.1;;
77953;SDS011;67151;52.544;6.034;2023-03-01T01:00:05;3.8;;;2.1;;
77953;SDS011;67151;52.544;6.034;2023-03-01T01:00:20;3;;;1.9;;
77953;SDS011;67151;52.544;6.034;2023-03-01T01:00:35;3;;;2;;
77953;SDS011;67151;52.544;6.034;2023-03-01T01:00:50;3.8;;;2.2;;
77953;SDS011;67151;52.544;6.034;2023-03-01T01:01:07;3.9;;;1.9;;
77953;SDS011;67151;52.544;6.034;2023-03-01T01:01:21;2.7;;;1.7;;
77953;SDS011;67151;52.544;6.034;2023-03-01T01:01:35;2.3;;;1.6;;
77953;SDS011;67151;52.544;6.034;2023-03-01T01:01:50;2.5;;;1.8;;
77953;SDS011;67151;52.544;6.034;2023-03-01T01:02:05;3;;;2;;
77953;SDS011;67151;52.544;6.034;2023-03-01T01:02:27;4;;;2;;
77953;SDS011;67151;52.544;6.034;2023-03-01T01:02:35;3.8;;;2;;
77953;SDS011;67151;52.544;6.034;2023-03-01T01:02:50;3.3;;;2.1;;
77953;SDS011;67151;52.544;6.034;2023-03-01T01:03:05;3.6;;;2.3;;
77953;SDS011;67151;52.544;6.034;2023-03-01T01:03:20;4.8;;;2.3;;
77953;SDS011;67151;52.544;6.034;2023-03-01T01:03:35;4.9;;;2.1;;
77953;SDS011;67151;52.544;6.034;2023-03-01T01:03:51;3.6;;;1.9;;
77953;SDS011;67151;52.544;6.034;2023-03-01T01:04:06;3.3;;;2;;
77953;SDS011;67151;52.544;6.034;2023-03-01T01:04:20;3;;;2;;
77953;SDS011;67151;52.544;6.034;2023-03-01T01:04:35;2.8;;;1.9;;
77953;SDS011;67151;52.544;6.034;2023-03-01T01:04:50;2.9;;;1.8;;
77953;SDS011;67151;52.544;6.034;2023-03-01T01:05:05;3.2;;;2;;
77953;SDS011;67151;52.544;6.034;2023-03-01T01:05:20;3.5;;;2.2;;
77953;SDS011;67151;52.544;6.034;2023-03-01T01:05:35;3.9;;;2;;
77953;SDS011;67151;52.544;6.034;2023-03-01T01:05:50;3.4;;;2.1;;
77953;SDS011;67151;52.544;6.034;2023-03-01T01:06:05;2.8;;;2.2;;
77953;SDS011;67151;52.544;6.034;2023-03-01T01:06:20;3.4;;;2.3;;
77953;SDS011;67151;52.544;6.034;2023-03-01T01:06:36;3.5;;;2.1;;
77953;SDS011;67151;52.544;6.034;2023-03-01T01:06:50;3.5;;;1.8;;
77953;SDS011;67151;52.544;6.034;2023-03-01T01:07:05;3.6;;;1.9;;
77953;SDS011;67151;52.544;6.034;2023-03-01T01:07:20;3.6;;;2;;
77953;SDS011;67151;52.544;6.034;2023-03-01T01:07:35;3.5;;;1.9;;
77953;SDS011;67151;52.544;6.034;2023-03-01T01:07:50;3.9;;;2.1;;
77953;SDS011;67151;52.544;6.034;2023-03-01T01:08:05;4;;;2.2;;
77953;SDS011;67151;52.544;6.034;2023-03-01T01:08:20;4;;;2.1;;
77953;SDS011;67151;52.544;6.034;2023-03-01T01:08:35;4.2;;;2;;
77953;SDS011;67151;52.544;6.034;2023-03-01T01:08:50;3.8;;;2.2;;
77953;SDS011;67151;52.544;6.034;2023-03-01T01:09:05;3.9;;;2.3;;
77953;SDS011;67151;52.544;6.034;2023-03-01T01:09:20;3.2;;;2.1;;
77953;SDS011;67151;52.544;6.034;2023-03-01T01:09:35;2.5;;;1.8;;
77953;SDS011;67151;52.544;6.034;2023-03-01T01:09:50;2.8;;;2;;
77953;SDS011;67151;52.544;6.034;2023-03-01T01:10:05;4.2;;;2.2;;
77953;SDS011;67151;52.544;6.034;2023-03-01T01:10:20;4.3;;;2.2;;
77953;SDS011;67151;52.544;6.034;2023-03-01T01:10:35;3.3;;;2.1;;
77953;SDS011;67151;52.544;6.034;2023-03-01T01:10:50;3.7;;;2.2;;
77953;SDS011;67151;52.544;6.034;2023-03-01T01:11:05;3.3;;;2.1;;
77953;SDS011;67151;52.544;6.034;2023-03-01T01:11:20;2.9;;;2;;
77953;SDS011;67151;52.544;6.034;2023-03-01T01:11:35;3.6;;;2;;
77953;SDS011;67151;52.544;6.034;2023-03-01T01:11:50;3.6;;;2;;
77953;SDS011;67151;52.544;6.034;2023-03-01T01:12:05;3.5;;;2.1;;
77953;SDS011;67151;52.544;6.034;2023-03-01T01:12:20;3.7;;;2;;
77953;SDS011;67151;52.544;6.034;2023-03-01T01:12:35;3.6;;;1.9;;
77953;SDS011;67151;52.544;6.034;2023-03-01T01:12:51;3.4;;;2;;
77953;SDS011;67151;52.544;6.034;2023-03-01T01:13:05;3.7;;;2.2;;
77953;SDS011;67151;52.544;6.034;2023-03-01T01:13:20;4.2;;;2.3;;
77953;SDS011;67151;52.544;6.034;2023-03-01T01:13:35;3.7;;;2.3;;
77953;SDS011;67151;52.544;6.034;2023-03-01T01:13:50;3.2;;;2;;
77953;SDS011;67151;52.544;6.034;2023-03-01T01:14:05;3.5;;;1.9;;
77953;SDS011;67151;52.544;6.034;2023-03-01T01:14:20;3.8;;;1.8;;
77953;SDS011;67151;52.544;6.034;2023-03-01T01:14:35;3.5;;;2.2;;
77953;SDS011;67151;52.544;6.034;2023-03-01T01:14:50;3.6;;;2.4;;
77953;SDS011;67151;52.544;6.034;2023-03-01T01:15:05;3.8;;;2.2;;
77953;SDS011;67151;52.544;6.034;2023-03-01T01:15:20;3.8;;;2;;
77953;SDS011;67151;52.544;6.034;2023-03-01T01:15:35;3.7;;;2.1;;
77953;SDS011;67151;52.544;6.034;2023-03-01T01:15:50;3.1;;;2;;
77953;SDS011;67151;52.544;6.034;2023-03-01T01:16:05;2.7;;;1.9;;
77953;SDS011;67151;52.544;6.034;2023-03-01T01:16:21;2.9;;;2;;
77953;SDS011;67151;52.544;6.034;2023-03-01T01:16:35;2.9;;;2;;
77953;SDS011;67151;52.544;6.034;2023-03-01T01:16:50;3;;;1.9;;
77953;SDS011;67151;52.544;6.034;2023-03-01T01:17:05;3.1;;;2;;
77953;SDS011;67151;52.544;6.034;2023-03-01T01:17:20;3;;;2.1;;
77953;SDS011;67151;52.544;6.034;2023-03-01T01:17:35;3.3;;;2.2;;
77953;SDS011;67151;52.544;6.034;2023-03-01T01:17:50;3.5;;;2.3;;
77953;SDS011;67151;52.544;6.034;2023-03-01T01:18:05;4.4;;;2.5;;
77953;SDS011;67151;52.544;6.034;2023-03-01T01:18:20;4.1;;;2.3;;
77953;SDS011;67151;52.544;6.034;2023-03-01T01:18:35;3.5;;;2.1;;
77953;SDS011;67151;52.544;6.034;2023-03-01T01:18:50;3.2;;;2;;
77953;SDS011;67151;52.544;6.034;2023-03-01T01:19:05;3.3;;;1.9;;
77953;SDS011;67151;52.544;6.034;2023-03-01T01:19:20;3.4;;;1.8;;
77953;SDS011;67151;52.544;6.034;2023-03-01T01:19:35;2.8;;;1.9;;
77953;SDS011;67151;52.544;6.034;2023-03-01T01:20:27;2.7;;;1.8;;
77953;SDS011;67151;52.544;6.034;2023-03-01T01:20:27;4;;;2.2;;
77953;SDS011;67151;52.544;6.034;2023-03-01T01:20:27;3;;;1.8;;
77953;SDS011;67151;52.544;6.034;2023-03-01T01:20:35;3.8;;;2.2;;
77953;SDS011;67151;52.544;6.034;2023-03-01T01:20:50;3.8;;;2;;
77953;SDS011;67151;52.544;6.034;2023-03-01T01:21:05;4.2;;;2.2;;
77953;SDS011;67151;52.544;6.034;2023-03-01T01:21:21;4.1;;;2;;
77953;SDS011;67151;52.544;6.034;2023-03-01T01:21:35;4.4;;;1.8;;
77953;SDS011;67151;52.544;6.034;2023-03-01T01:21:50;4;;;1.8;;
77953;SDS011;67151;52.544;6.034;2023-03-01T01:22:05;3.8;;;2;;
77953;SDS011;67151;52.544;6.034;2023-03-01T01:22:20;4.5;;;2.1;;
77953;SDS011;67151;52.544;6.034;2023-03-01T01:22:35;4.1;;;2.1;;
77953;SDS011;67151;52.544;6.034;2023-03-01T01:22:50;4;;;2.2;;
77953;SDS011;67151;52.544;6.034;2023-03-01T01:23:05;4.7;;;2.3;;
77953;SDS011;67151;52.544;6.034;2023-03-01T01:23:20;3.6;;;2.2;;
77953;SDS011;67151;52.544;6.034;2023-03-01T01:23:36;2.9;;;1.8;;
77953;SDS011;67151;52.544;6.034;2023-03-01T01:23:50;3.1;;;2;;
77953;SDS011;67151;52.544;6.034;2023-03-01T01:24:05;2.7;;;2;;
77953;SDS011;67151;52.544;6.034;2023-03-01T01:24:20;3;;;2;;
77953;SDS011;67151;52.544;6.034;2023-03-01T01:24:35;3.5;;;2.2;;
77953;SDS011;67151;52.544;6.034;2023-03-01T01:24:50;3;;;2;;
77953;SDS011;67151;52.544;6.034;2023-03-01T01:25:05;2.9;;;1.9;;
77953;SDS011;67151;52.544;6.034;2023-03-01T01:25:20;6.3;;;2.1;;
77953;SDS011;67151;52.544;6.034;2023-03-01T01:25:35;6.4;;;1.9;;
77953;SDS011;67151;52.544;6.034;2023-03-01T01:25:50;3.2;;;1.9;;
77953;SDS011;67151;52.544;6.034;2023-03-01T01:26:05;3.8;;;2;;
77953;SDS011;67151;52.544;6.034;2023-03-01T01:26:21;5;;;2;;
77953;SDS011;67151;52.544;6.034;2023-03-01T01:26:35;4.2;;;2;;
77953;SDS011;67151;52.544;6.034;2023-03-01T01:26:50;2.7;;;1.9;;
77953;SDS011;67151;52.544;6.034;2023-03-01T01:27:05;2.9;;;1.7;;
77953;SDS011;67151;52.544;6.034;2023-03-01T01:27:20;4;;;1.7;;
77953;SDS011;67151;52.544;6.034;2023-03-01T01:27:35;4.9;;;2;;
77953;SDS011;67151;52.544;6.034;2023-03-01T01:27:50;3.6;;;2;;
77953;SDS011;67151;52.544;6.034;2023-03-01T01:28:05;3.1;;;1.7;;
77953;SDS011;67151;52.544;6.034;2023-03-01T01:28:20;4.3;;;1.8;;
77953;SDS011;67151;52.544;6.034;2023-03-01T01:28:35;4.3;;;1.9;;
77953;SDS011;67151;52.544;6.034;2023-03-01T01:28:50;3.7;;;1.9;;
77953;SDS011;67151;52.544;6.034;2023-03-01T01:29:05;3.2;;;1.9;;
77953;SDS011;67151;52.544;6.034;2023-03-01T01:29:20;3.2;;;2.1;;
77953;SDS011;67151;52.544;6.034;2023-03-01T01:29:35;3.3;;;2;;
77953;SDS011;67151;52.544;6.034;2023-03-01T01:29:52;3.3;;;1.9;;
77953;SDS011;67151;52.544;6.034;2023-03-01T01:30:05;3.4;;;1.9;;
77953;SDS011;67151;52.544;6.034;2023-03-01T01:30:20;4.1;;;2.1;;
77953;SDS011;67151;52.544;6.034;2023-03-01T01:30:35;3.9;;;2.2;;
77953;SDS011;67151;52.544;6.034;2023-03-01T01:30:50;3;;;2.2;;
77953;SDS011;67151;52.544;6.034;2023-03-01T01:31:05;3.3;;;1.9;;
77953;SDS011;67151;52.544;6.034;2023-03-01T01:31:20;3.1;;;1.8;;
77953;SDS011;67151;52.544;6.034;2023-03-01T01:31:35;4;;;2.1;;
77953;SDS011;67151;52.544;6.034;2023-03-01T01:31:50;5.1;;;2.3;;
77953;SDS011;67151;52.544;6.034;2023-03-01T01:32:05;4.6;;;2.1;;
77953;SDS011;67151;52.544;6.034;2023-03-01T01:32:20;3.6;;;2;;
77953;SDS011;67151;52.544;6.034;2023-03-01T01:32:35;4.2;;;2;;
77953;SDS011;67151;52.544;6.034;2023-03-01T01:32:50;5.4;;;2;;
77953;SDS011;67151;52.544;6.034;2023-03-01T01:33:05;5.3;;;2;;
77953;SDS011;67151;52.544;6.034;2023-03-01T01:33:20;4;;;2;;
77953;SDS011;67151;52.544;6.034;2023-03-01T01:33:35;2.7;;;1.8;;
77953;SDS011;67151;52.544;6.034;2023-03-01T01:33:50;2.9;;;1.8;;
77953;SDS011;67151;52.544;6.034;2023-03-01T01:34:05;3.2;;;1.9;;
77953;SDS011;67151;52.544;6.034;2023-03-01T01:34:21;3.1;;;1.9;;
77953;SDS011;67151;52.544;6.034;2023-03-01T01:34:35;4.5;;;2.1;;
77953;SDS011;67151;52.544;6.034;2023-03-01T01:34:50;5.3;;;2.1;;
77953;SDS011;67151;52.544;6.034;2023-03-01T01:35:05;3.4;;;1.9;;
77953;SDS011;67151;52.544;6.034;2023-03-01T01:35:20;3.4;;;1.9;;
77953;SDS011;67151;52.544;6.034;2023-03-01T01:35:35;3.8;;;2;;
77953;SDS011;67151;52.544;6.034;2023-03-01T01:35:50;3.4;;;2;;
77953;SDS011;67151;52.544;6.034;2023-03-01T01:36:05;3.1;;;1.9;;
77953;SDS011;67151;52.544;6.034;2023-03-01T01:36:20;2.9;;;1.7;;
77953;SDS011;67151;52.544;6.034;2023-03-01T01:36:35;3.1;;;1.8;;
77953;SDS011;67151;52.544;6.034;2023-03-01T01:36:51;3.2;;;1.9;;
77953;SDS011;67151;52.544;6.034;2023-03-01T01:37:05;3.5;;;1.9;;
77953;SDS011;67151;52.544;6.034;2023-03-01T01:37:20;3.2;;;1.9;;
77953;SDS011;67151;52.544;6.034;2023-03-01T01:37:35;2.8;;;2;;
77953;SDS011;67151;52.544;6.034;2023-03-01T01:37:50;3.1;;;2.1;;
77953;SDS011;67151;52.544;6.034;2023-03-01T01:38:05;3.1;;;2;;
77953;SDS011;67151;52.544;6.034;2023-03-01T01:38:20;3.2;;;2;;
77953;SDS011;67151;52.544;6.034;2023-03-01T01:38:35;3.1;;;2;;
77953;SDS011;67151;52.544;6.034;2023-03-01T01:38:50;2.7;;;1.9;;
77953;SDS011;67151;52.544;6.034;2023-03-01T01:39:05;2.6;;;2.1;;
77953;SDS011;67151;52.544;6.034;2023-03-01T01:39:20;3.3;;;2.1;;
77953;SDS011;67151;52.544;6.034;2023-03-01T01:39:35;3.6;;;2;;
77953;SDS011;67151;52.544;6.034;2023-03-01T01:39:50;4.9;;;2.1;;
77953;SDS011;67151;52.544;6.034;2023-03-01T01:40:05;4.1;;;1.9;;
77953;SDS011;67151;52.544;6.034;2023-03-01T01:40:20;3;;;1.9;;
77953;SDS011;67151;52.544;6.034;2023-03-01T01:40:42;3.5;;;2;;
77953;SDS011;67151;52.544;6.034;2023-03-01T01:40:50;2.6;;;1.8;;
77953;SDS011;67151;52.544;6.034;2023-03-01T01:41:06;2.4;;;1.8;;
77953;SDS011;67151;52.544;6.034;2023-03-01T01:41:20;2.8;;;2;;
77953;SDS011;67151;52.544;6.034;2023-03-01T01:41:35;3.2;;;1.9;;
77953;SDS011;67151;52.544;6.034;2023-03-01T01:41:50;3.6;;;2;;
77953;SDS011;67151;52.544;6.034;2023-03-01T01:42:05;4;;;2.2;;
77953;SDS011;67151;52.544;6.034;2023-03-01T01:42:20;3.5;;;2;;
77953;SDS011;67151;52.544;6.034;2023-03-01T01:42:35;3.4;;;1.9;;
77953;SDS011;67151;52.544;6.034;2023-03-01T01:42:50;3.6;;;2;;
77953;SDS011;67151;52.544;6.034;2023-03-01T01:43:07;3.3;;;1.9;;
77953;SDS011;67151;52.544;6.034;2023-03-01T01:43:22;3.1;;;1.9;;
77953;SDS011;67151;52.544;6.034;2023-03-01T01:43:36;2.6;;;1.7;;
77953;SDS011;67151;52.544;6.034;2023-03-01T01:44:09;2.8;;;1.7;;
77953;SDS011;67151;52.544;6.034;2023-03-01T01:44:14;3.5;;;1.8;;
77953;SDS011;67151;52.544;6.034;2023-03-01T01:44:21;3.9;;;1.8;;
77953;SDS011;67151;52.544;6.034;2023-03-01T01:44:36;3.7;;;1.8;;
77953;SDS011;67151;52.544;6.034;2023-03-01T01:45:15;3.4;;;1.7;;
77953;SDS011;67151;52.544;6.034;2023-03-01T01:45:30;2.6;;;1.9;;
77953;SDS011;67151;52.544;6.034;2023-03-01T01:45:35;2.6;;;1.9;;
77953;SDS011;67151;52.544;6.034;2023-03-01T01:45:36;3;;;1.7;;
77953;SDS011;67151;52.544;6.034;2023-03-01T01:45:50;3;;;1.9;;
77953;SDS011;67151;52.544;6.034;2023-03-01T01:46:06;3.1;;;1.8;;
77953;SDS011;67151;52.544;6.034;2023-03-01T01:46:21;2.8;;;1.9;;
77953;SDS011;67151;52.544;6.034;2023-03-01T01:46:35;3.2;;;1.8;;
77953;SDS011;67151;52.544;6.034;2023-03-01T01:46:51;3.9;;;1.9;;
77953;SDS011;67151;52.544;6.034;2023-03-01T01:47:06;4.5;;;2.1;;
77953;SDS011;67151;52.544;6.034;2023-03-01T01:47:20;3.8;;;1.9;;
77953;SDS011;67151;52.544;6.034;2023-03-01T01:47:35;3;;;2;;
77953;SDS011;67151;52.544;6.034;2023-03-01T01:47:50;3.2;;;2;;
77953;SDS011;67151;52.544;6.034;2023-03-01T01:48:06;2.8;;;1.8;;
77953;SDS011;67151;52.544;6.034;2023-03-01T01:48:21;2.5;;;1.8;;
77953;SDS011;67151;52.544;6.034;2023-03-01T01:48:37;2.3;;;1.7;;
77953;SDS011;67151;52.544;6.034;2023-03-01T01:48:52;2.3;;;1.7;;
77953;SDS011;67151;52.544;6.034;2023-03-01T01:49:06;3;;;1.9;;
77953;SDS011;67151;52.544;6.034;2023-03-01T01:49:23;2.8;;;1.8;;
77953;SDS011;67151;52.544;6.034;2023-03-01T01:49:36;2.4;;;1.6;;
77953;SDS011;67151;52.544;6.034;2023-03-01T01:49:50;3;;;1.9;;
77953;SDS011;67151;52.544;6.034;2023-03-01T01:50:08;3.2;;;1.9;;
77953;SDS011;67151;52.544;6.034;2023-03-01T01:50:20;3.3;;;2;;
77953;SDS011;67151;52.544;6.034;2023-03-01T01:50:35;3.1;;;2;;
77953;SDS011;67151;52.544;6.034;2023-03-01T01:50:51;2.5;;;1.9;;
77953;SDS011;67151;52.544;6.034;2023-03-01T01:51:05;3.3;;;2;;
77953;SDS011;67151;52.544;6.034;2023-03-01T01:51:22;3.8;;;2;;
77953;SDS011;67151;52.544;6.034;2023-03-01T01:51:35;2.9;;;1.9;;
77953;SDS011;67151;52.544;6.034;2023-03-01T01:51:51;2.7;;;1.8;;
77953;SDS011;67151;52.544;6.034;2023-03-01T01:52:07;3.1;;;2;;
77953;SDS011;67151;52.544;6.034;2023-03-01T01:52:21;3;;;2.1;;
77953;SDS011;67151;52.544;6.034;2023-03-01T01:52:35;3;;;2.1;;
77953;SDS011;67151;52.544;6.034;2023-03-01T01:52:50;3.2;;;2;;
77953;SDS011;67151;52.544;6.034;2023-03-01T01:53:06;3.4;;;2;;
77953;SDS011;67151;52.544;6.034;2023-03-01T01:53:20;3.2;;;2;;
77953;SDS011;67151;52.544;6.034;2023-03-01T01:53:35;2.8;;;2;;
77953;SDS011;67151;52.544;6.034;2023-03-01T01:53:51;3;;;1.8;;
77953;SDS011;67151;52.544;6.034;2023-03-01T01:54:06;3;;;1.7;;
77953;SDS011;67151;52.544;6.034;2023-03-01T01:54:21;2.9;;;1.8;;
77953;SDS011;67151;52.544;6.034;2023-03-01T01:54:38;2.9;;;1.8;;
77953;SDS011;67151;52.544;6.034;2023-03-01T01:54:51;3;;;1.9;;
77953;SDS011;67151;52.544;6.034;2023-03-01T01:55:06;3.4;;;2;;
77953;SDS011;67151;52.544;6.034;2023-03-01T01:55:21;3.5;;;2;;
77953;SDS011;67151;52.544;6.034;2023-03-01T01:55:35;3;;;2;;
77953;SDS011;67151;52.544;6.034;2023-03-01T01:55:51;5;;;1.9;;
77953;SDS011;67151;52.544;6.034;2023-03-01T01:56:06;5.2;;;2;;
77953;SDS011;67151;52.544;6.034;2023-03-01T01:56:20;3.5;;;2.1;;
77953;SDS011;67151;52.544;6.034;2023-03-01T01:56:35;3.7;;;2.2;;
77953;SDS011;67151;52.544;6.034;2023-03-01T01:56:51;3.1;;;2.1;;
77953;SDS011;67151;52.544;6.034;2023-03-01T01:57:06;2.6;;;1.9;;
77953;SDS011;67151;52.544;6.034;2023-03-01T01:57:21;2.6;;;1.9;;
77953;SDS011;67151;52.544;6.034;2023-03-01T01:57:36;2.7;;;1.8;;
77953;SDS011;67151;52.544;6.034;2023-03-01T01:57:51;2.5;;;1.8;;
77953;SDS011;67151;52.544;6.034;2023-03-01T01:58:05;3.2;;;1.9;;
77953;SDS011;67151;52.544;6.034;2023-03-01T01:58:20;3.4;;;1.9;;
77953;SDS011;67151;52.544;6.034;2023-03-01T01:58:35;3.3;;;1.9;;
77953;SDS011;67151;52.544;6.034;2023-03-01T01:58:50;3.2;;;1.8;;
77953;SDS011;67151;52.544;6.034;2023-03-01T01:59:05;3.2;;;1.9;;
77953;SDS011;67151;52.544;6.034;2023-03-01T01:59:20;3.8;;;2.1;;
77953;SDS011;67151;52.544;6.034;2023-03-01T01:59:35;3.6;;;2;;
77953;SDS011;67151;52.544;6.034;2023-03-01T01:59:51;3.1;;;2;;
77953;SDS011;67151;52.544;6.034;2023-03-01T02:00:06;3.8;;;2.1;;
77953;SDS011;67151;52.544;6.034;2023-03-01T02:00:21;3.7;;;2;;
77953;SDS011;67151;52.544;6.034;2023-03-01T02:00:35;3.3;;;1.8;;
77953;SDS011;67151;52.544;6.034;2023-03-01T02:00:50;3.1;;;1.8;;
77953;SDS011;67151;52.544;6.034;2023-03-01T02:01:05;3;;;1.9;;
77953;SDS011;67151;52.544;6.034;2023-03-01T02:01:20;3;;;2;;
77953;SDS011;67151;52.544;6.034;2023-03-01T02:01:35;2.8;;;2;;
77953;SDS011;67151;52.544;6.034;2023-03-01T02:01:50;2.7;;;1.9;;
77953;SDS011;67151;52.544;6.034;2023-03-01T02:02:05;3.1;;;1.7;;
77953;SDS011;67151;52.544;6.034;2023-03-01T02:02:20;3.3;;;2;;
77953;SDS011;67151;52.544;6.034;2023-03-01T02:02:35;2.8;;;1.9;;
77953;SDS011;67151;52.544;6.034;2023-03-01T02:02:51;3;;;1.8;;
77953;SDS011;67151;52.544;6.034;2023-03-01T02:03:07;3;;;1.8;;
77953;SDS011;67151;52.544;6.034;2023-03-01T02:03:22;3.5;;;2;;
77953;SDS011;67151;52.544;6.034;2023-03-01T02:03:36;3.4;;;2;;
77953;SDS011;67151;52.544;6.034;2023-03-01T02:03:50;2.8;;;1.8;;
77953;SDS011;67151;52.544;6.034;2023-03-01T02:04:05;3.5;;;1.7;;
77953;SDS011;67151;52.544;6.034;2023-03-01T02:04:20;3.2;;;1.7;;
77953;SDS011;67151;52.544;6.034;2023-03-01T02:04:35;3.3;;;1.6;;
77953;SDS011;67151;52.544;6.034;2023-03-01T02:04:52;3.5;;;1.8;;
77953;SDS011;67151;52.544;6.034;2023-03-01T02:05:06;3.6;;;1.9;;
77953;SDS011;67151;52.544;6.034;2023-03-01T02:05:22;3.4;;;1.8;;
77953;SDS011;67151;52.544;6.034;2023-03-01T02:05:36;2.5;;;1.7;;
77953;SDS011;67151;52.544;6.034;2023-03-01T02:05:51;3;;;1.7;;
77953;SDS011;67151;52.544;6.034;2023-03-01T02:06:06;3.8;;;1.9;;
77953;SDS011;67151;52.544;6.034;2023-03-01T02:06:21;3;;;1.7;;
77953;SDS011;67151;52.544;6.034;2023-03-01T02:06:36;3.7;;;1.7;;
77953;SDS011;67151;52.544;6.034;2023-03-01T02:06:51;4.2;;;1.8;;
77953;SDS011;67151;52.544;6.034;2023-03-01T02:07:06;3.5;;;2;;
77953;SDS011;67151;52.544;6.034;2023-03-01T02:07:20;3.3;;;1.9;;
77953;SDS011;67151;52.544;6.034;2023-03-01T02:07:35;3.3;;;2;;
77953;SDS011;67151;52.544;6.034;2023-03-01T02:07:50;3.1;;;2.1;;
77953;SDS011;67151;52.544;6.034;2023-03-01T02:08:05;2.7;;;1.9;;
77953;SDS011;67151;52.544;6.034;2023-03-01T02:08:20;3.1;;;1.9;;
77953;SDS011;67151;52.544;6.034;2023-03-01T02:08:36;3.5;;;2;;
77953;SDS011;67151;52.544;6.034;2023-03-01T02:08:50;3.4;;;1.9;;
77953;SDS011;67151;52.544;6.034;2023-03-01T02:09:07;2.8;;;1.8;;
77953;SDS011;67151;52.544;6.034;2023-03-01T02:09:20;2.5;;;1.8;;
77953;SDS011;67151;52.544;6.034;2023-03-01T02:09:35;2.5;;;1.7;;
77953;SDS011;67151;52.544;6.034;2023-03-01T02:09:51;2.2;;;1.6;;
77953;SDS011;67151;52.544;6.034;2023-03-01T02:10:05;2.1;;;1.5;;
77953;SDS011;67151;52.544;6.034;2023-03-01T02:10:20;4;;;1.7;;
77953;SDS011;67151;52.544;6.034;2023-03-01T02:10:35;4.5;;;1.9;;
77953;SDS011;67151;52.544;6.034;2023-03-01T02:10:50;3.3;;;1.9;;
77953;SDS011;67151;52.544;6.034;2023-03-01T02:11:05;3.1;;;1.8;;
77953;SDS011;67151;52.544;6.034;2023-03-01T02:11:20;2.9;;;1.8;;
77953;SDS011;67151;52.544;6.034;2023-03-01T02:11:35;3;;;2;;
77953;SDS011;67151;52.544;6.034;2023-03-01T02:11:50;3;;;2;;
77953;SDS011;67151;52.544;6.034;2023-03-01T02:12:05;3.7;;;1.9;;
77953;SDS011;67151;52.544;6.034;2023-03-01T02:12:20;3.6;;;1.8;;
77953;SDS011;67151;52.544;6.034;2023-03-01T02:12:35;2.6;;;1.8;;
77953;SDS011;67151;52.544;6.034;2023-03-01T02:12:50;2.9;;;1.7;;
77953;SDS011;67151;52.544;6.034;2023-03-01T02:13:05;3.2;;;1.6;;
77953;SDS011;67151;52.544;6.034;2023-03-01T02:13:20;3.3;;;1.8;;
77953;SDS011;67151;52.544;6.034;2023-03-01T02:13:35;2.8;;;1.9;;
77953;SDS011;67151;52.544;6.034;2023-03-01T02:13:50;3.1;;;1.9;;
77953;SDS011;67151;52.544;6.034;2023-03-01T02:14:05;3;;;1.8;;
77953;SDS011;67151;52.544;6.034;2023-03-01T02:14:20;3.1;;;1.8;;
77953;SDS011;67151;52.544;6.034;2023-03-01T02:14:35;3;;;1.7;;
77953;SDS011;67151;52.544;6.034;2023-03-01T02:14:50;2.5;;;1.7;;
77953;SDS011;67151;52.544;6.034;2023-03-01T02:15:05;2.9;;;1.8;;
77953;SDS011;67151;52.544;6.034;2023-03-01T02:15:20;3.1;;;1.8;;
77953;SDS011;67151;52.544;6.034;2023-03-01T02:15:35;2.9;;;1.7;;
77953;SDS011;67151;52.544;6.034;2023-03-01T02:15:50;2.1;;;1.6;;
77953;SDS011;67151;52.544;6.034;2023-03-01T02:16:05;2;;;1.6;;
77953;SDS011;67151;52.544;6.034;2023-03-01T02:16:20;2;;;1.5;;
77953;SDS011;67151;52.544;6.034;2023-03-01T02:16:35;3.3;;;1.5;;
77953;SDS011;67151;52.544;6.034;2023-03-01T02:16:50;4.1;;;1.7;;
77953;SDS011;67151;52.544;6.034;2023-03-01T02:17:05;3.1;;;1.9;;
77953;SDS011;67151;52.544;6.034;2023-03-01T02:17:20;2.7;;;1.8;;
77953;SDS011;67151;52.544;6.034;2023-03-01T02:17:35;2.6;;;1.7;;
77953;SDS011;67151;52.544;6.034;2023-03-01T02:17:50;2.5;;;1.8;;
77953;SDS011;67151;52.544;6.034;2023-03-01T02:18:05;2.8;;;1.9;;
77953;SDS011;67151;52.544;6.034;2023-03-01T02:18:21;3;;;1.7;;
77953;SDS011;67151;52.544;6.034;2023-03-01T02:18:35;4;;;1.8;;
77953;SDS011;67151;52.544;6.034;2023-03-01T02:18:50;3.4;;;1.7;;
77953;SDS011;67151;52.544;6.034;2023-03-01T02:19:29;2.2;;;1.6;;
77953;SDS011;67151;52.544;6.034;2023-03-01T02:19:30;2.6;;;1.7;;
77953;SDS011;67151;52.544;6.034;2023-03-01T02:19:39;2.6;;;1.6;;
77953;SDS011;67151;52.544;6.034;2023-03-01T02:19:53;2.4;;;1.7;;
77953;SDS011;67151;52.544;6.034;2023-03-01T02:20:07;2.7;;;1.8;;
77953;SDS011;67151;52.544;6.034;2023-03-01T02:20:21;2.6;;;1.6;;
77953;SDS011;67151;52.544;6.034;2023-03-01T02:20:37;2.4;;;1.5;;
77953;SDS011;67151;52.544;6.034;2023-03-01T02:21:01;2.7;;;1.8;;
77953;SDS011;67151;52.544;6.034;2023-03-01T02:21:27;2.7;;;1.8;;
77953;SDS011;67151;52.544;6.034;2023-03-01T02:21:28;2.6;;;1.6;;
77953;SDS011;67151;52.544;6.034;2023-03-01T02:21:37;3.1;;;1.9;;
77953;SDS011;67151;52.544;6.034;2023-03-01T02:21:51;3.5;;;2;;
77953;SDS011;67151;52.544;6.034;2023-03-01T02:22:06;3.4;;;1.8;;
77953;SDS011;67151;52.544;6.034;2023-03-01T02:22:20;3.5;;;1.8;;
77953;SDS011;67151;52.544;6.034;2023-03-01T02:22:35;3.7;;;1.7;;
77953;SDS011;67151;52.544;6.034;2023-03-01T02:22:50;3.6;;;1.7;;
77953;SDS011;67151;52.544;6.034;2023-03-01T02:23:05;2.9;;;1.6;;
77953;SDS011;67151;52.544;6.034;2023-03-01T02:23:20;2.7;;;1.6;;
77953;SDS011;67151;52.544;6.034;2023-03-01T02:23:35;2.7;;;1.8;;
77953;SDS011;67151;52.544;6.034;2023-03-01T02:23:50;3.1;;;1.8;;
77953;SDS011;67151;52.544;6.034;2023-03-01T02:24:07;2.7;;;1.6;;
77953;SDS011;67151;52.544;6.034;2023-03-01T02:24:21;3.3;;;1.7;;
77953;SDS011;67151;52.544;6.034;2023-03-01T02:24:37;3.3;;;1.7;;
77953;SDS011;67151;52.544;6.034;2023-03-01T02:24:53;2.8;;;1.7;;
77953;SDS011;67151;52.544;6.034;2023-03-01T02:25:07;2.8;;;1.7;;
77953;SDS011;67151;52.544;6.034;2023-03-01T02:25:23;2.2;;;1.8;;
77953;SDS011;67151;52.544;6.034;2023-03-01T02:25:36;2.8;;;1.9;;
77953;SDS011;67151;52.544;6.034;2023-03-01T02:25:51;3.1;;;1.8;;
77953;SDS011;67151;52.544;6.034;2023-03-01T02:26:05;2.5;;;1.7;;
77953;SDS011;67151;52.544;6.034;2023-03-01T02:26:20;2.1;;;1.6;;
77953;SDS011;67151;52.544;6.034;2023-03-01T02:26:36;2.3;;;1.7;;
77953;SDS011;67151;52.544;6.034;2023-03-01T02:26:51;3.4;;;1.8;;
77953;SDS011;67151;52.544;6.034;2023-03-01T02:27:05;3.5;;;1.9;;
77953;SDS011;67151;52.544;6.034;2023-03-01T02:27:20;2.6;;;1.9;;
77953;SDS011;67151;52.544;6.034;2023-03-01T02:27:37;2.6;;;1.8;;
77953;SDS011;67151;52.544;6.034;2023-03-01T02:27:52;2.7;;;1.8;;
77953;SDS011;67151;52.544;6.034;2023-03-01T02:28:07;2.9;;;1.9;;
77953;SDS011;67151;52.544;6.034;2023-03-01T02:28:22;2.4;;;1.7;;
77953;SDS011;67151;52.544;6.034;2023-03-01T02:28:35;2.6;;;1.7;;